createdAt,value
2019-02-08T00:00:45.816Z,8.05
2019-02-08T00:03:14.703Z,7.93
2019-02-08T00:05:43.588Z,8.14
2019-02-08T00:08:12.451Z,8.13
2019-02-08T00:10:41.337Z,8.12
2019-02-08T00:13:10.246Z,8.19
2019-02-08T00:15:39.131Z,8.02
2019-02-08T00:18:07.998Z,7.82
2019-02-08T00:20:36.966Z,7.85
2019-02-08T00:23:05.825Z,7.97
2019-02-08T00:25:34.705Z,7.87
2019-02-08T00:28:03.663Z,7.87
2019-02-08T00:30:32.573Z,7.92
2019-02-08T00:33:01.434Z,7.94
2019-02-08T00:35:30.311Z,7.86
2019-02-08T00:37:59.186Z,7.88
2019-02-08T00:40:28.089Z,7.87
2019-02-08T00:42:56.976Z,7.75
2019-02-08T00:45:27.546Z,7.88
2019-02-08T00:47:57.685Z,8.09
2019-02-08T00:50:26.600Z,7.88
2019-02-08T00:52:55.476Z,7.89
2019-02-08T00:55:24.379Z,7.72
2019-02-08T00:57:53.262Z,7.81
2019-02-08T01:00:22.164Z,7.85
2019-02-08T01:02:51.070Z,7.58
2019-02-08T01:05:19.993Z,7.70
2019-02-08T01:07:49.127Z,8.00
2019-02-08T01:10:23.204Z,7.83
2019-02-08T01:12:52.109Z,7.78
2019-02-08T01:15:21.221Z,7.66
2019-02-08T01:17:50.107Z,7.82
2019-02-08T01:20:19.705Z,7.84
2019-02-08T01:22:48.606Z,7.55
2019-02-08T01:25:21.739Z,7.77
2019-02-08T01:27:50.890Z,7.62
2019-02-08T01:30:21.678Z,7.63
2019-02-08T01:32:50.583Z,7.53
2019-02-08T01:35:19.501Z,7.47
2019-02-08T01:37:48.442Z,7.54
2019-02-08T01:40:19.490Z,7.58
2019-02-08T01:42:48.397Z,7.44
2019-02-08T01:45:19.629Z,7.51
2019-02-08T01:47:48.443Z,7.41
2019-02-08T01:50:24.990Z,7.41
2019-02-08T01:52:53.888Z,7.39
2019-02-08T01:55:22.773Z,7.35
2019-02-08T01:57:52.107Z,7.28
2019-02-08T02:00:23.337Z,7.34
2019-02-08T02:02:52.221Z,7.30
2019-02-08T02:05:21.093Z,7.18
2019-02-08T02:07:49.997Z,7.21
2019-02-08T02:10:24.417Z,7.23
2019-02-08T02:12:53.326Z,7.15
2019-02-08T02:15:22.195Z,7.18
2019-02-08T02:17:51.102Z,7.20
2019-02-08T02:20:21.596Z,7.11
2019-02-08T02:22:50.480Z,6.99
2019-02-08T02:25:19.336Z,7.16
2019-02-08T02:27:48.220Z,7.03
2019-02-08T02:30:20.027Z,6.97
2019-02-08T02:32:48.914Z,7.04
2019-02-08T02:35:17.783Z,7.04
2019-02-08T02:37:46.661Z,7.43
2019-02-08T02:40:15.640Z,7.23
2019-02-08T02:42:44.537Z,6.91
2019-02-08T02:45:19.158Z,6.81
2019-02-08T02:47:48.080Z,6.72
2019-02-08T02:50:16.947Z,6.86
2019-02-08T02:52:45.829Z,6.89
2019-02-08T02:55:15.101Z,6.90
2019-02-08T02:57:44.022Z,6.81
2019-02-08T03:00:27.742Z,6.84
2019-02-08T03:02:56.633Z,6.76
2019-02-08T03:05:25.531Z,6.78
2019-02-08T03:07:54.418Z,6.82
2019-02-08T03:10:23.295Z,6.81
2019-02-08T03:12:52.207Z,6.83
2019-02-08T03:15:21.096Z,6.85
2019-02-08T03:17:49.963Z,6.82
2019-02-08T03:20:18.968Z,6.76
2019-02-08T03:22:47.852Z,6.79
2019-02-08T03:25:18.684Z,6.94
2019-02-08T03:27:47.799Z,6.93
2019-02-08T03:30:18.729Z,7.25
2019-02-08T03:32:47.610Z,6.92
2019-02-08T03:35:21.208Z,6.73
2019-02-08T03:37:50.116Z,6.87
2019-02-08T03:40:21.552Z,6.83
2019-02-08T03:42:50.412Z,6.62
2019-02-08T03:45:19.337Z,6.73
2019-02-08T03:47:48.220Z,6.67
2019-02-08T03:50:17.848Z,6.66
2019-02-08T03:52:46.761Z,7.01
2019-02-08T03:55:17.124Z,6.83
2019-02-08T03:57:46.016Z,6.74
2019-02-08T04:00:20.228Z,6.77
2019-02-08T04:02:49.102Z,6.75
2019-02-08T04:05:17.957Z,6.66
2019-02-08T04:07:46.855Z,6.71
2019-02-08T04:10:15.972Z,6.60
2019-02-08T04:12:44.846Z,6.68
2019-02-08T04:15:15.946Z,6.63
2019-02-08T04:17:44.854Z,7.01
2019-02-08T04:20:15.260Z,6.81
2019-02-08T04:22:44.149Z,6.69
2019-02-08T04:25:13.608Z,6.77
2019-02-08T04:27:42.477Z,6.95
2019-02-08T04:30:23.255Z,6.57
2019-02-08T04:32:52.115Z,6.43
2019-02-08T04:35:20.999Z,6.49
2019-02-08T04:37:49.878Z,6.61
2019-02-08T04:40:19.533Z,6.90
2019-02-08T04:42:48.434Z,6.60
2019-02-08T04:45:17.437Z,6.52
2019-02-08T04:47:46.307Z,6.43
2019-02-08T04:50:17.291Z,6.52
2019-02-08T04:52:46.212Z,6.54
2019-02-08T04:55:15.081Z,6.51
2019-02-08T04:57:43.950Z,6.57
2019-02-08T05:00:16.674Z,6.86
2019-02-08T05:02:45.543Z,6.61
2019-02-08T05:05:14.437Z,6.59
2019-02-08T05:07:43.316Z,6.94
2019-02-08T05:10:12.597Z,6.76
2019-02-08T05:12:41.481Z,6.73
2019-02-08T05:15:10.724Z,6.72
2019-02-08T05:17:39.622Z,6.81
2019-02-08T05:20:09.827Z,6.76
2019-02-08T05:22:38.719Z,6.55
2019-02-08T05:25:07.654Z,7.00
2019-02-08T05:27:36.591Z,6.82
2019-02-08T05:30:09.482Z,6.92
2019-02-08T05:32:38.407Z,6.86
2019-02-08T05:35:07.744Z,6.83
2019-02-08T05:37:36.668Z,6.78
2019-02-08T05:40:07.117Z,6.80
2019-02-08T05:42:36.026Z,6.80
2019-02-08T05:45:06.514Z,6.77
2019-02-08T05:47:35.507Z,6.85
2019-02-08T05:50:05.862Z,6.82
2019-02-08T05:52:34.773Z,6.85
2019-02-08T05:55:03.792Z,6.72
2019-02-08T05:57:32.717Z,6.91
2019-02-08T06:00:01.611Z,6.89
2019-02-08T06:02:30.521Z,6.78
2019-02-08T06:04:59.427Z,6.72
2019-02-08T06:07:28.305Z,6.73
2019-02-08T06:09:57.205Z,6.78
2019-02-08T06:12:26.079Z,6.80
2019-02-08T06:14:55.010Z,6.73
2019-02-08T06:17:23.878Z,6.92
2019-02-08T06:19:52.786Z,6.82
2019-02-08T06:22:21.674Z,6.92
2019-02-08T06:24:50.571Z,6.76
2019-02-08T06:27:19.488Z,6.93
2019-02-08T06:29:48.406Z,6.98
2019-02-08T06:32:17.304Z,7.02
2019-02-08T06:34:46.221Z,6.93
2019-02-08T06:37:15.078Z,6.98
2019-02-08T06:39:43.994Z,6.90
2019-02-08T06:42:12.859Z,7.07
2019-02-08T06:44:41.736Z,6.93
2019-02-08T06:47:10.636Z,6.95
2019-02-08T06:49:39.538Z,6.98
2019-02-08T06:52:08.454Z,7.09
2019-02-08T06:54:37.437Z,6.98
2019-02-08T06:57:28.189Z,7.10
2019-02-08T07:00:14.570Z,7.00
2019-02-08T07:02:55.475Z,7.07
2019-02-08T07:05:38.765Z,7.06
2019-02-08T07:08:25.312Z,7.09
2019-02-08T07:11:11.665Z,7.04
2019-02-08T07:13:59.680Z,7.20
2019-02-08T07:16:46.234Z,7.14
2019-02-08T07:19:34.242Z,7.00
2019-02-08T07:22:31.224Z,7.11
2019-02-08T07:25:18.288Z,7.19
2019-02-08T07:27:53.385Z,7.10
2019-02-08T07:30:43.336Z,7.17
2019-02-08T07:33:33.844Z,7.20
2019-02-08T07:36:20.716Z,7.25
2019-02-08T07:39:03.165Z,7.37
2019-02-08T07:41:54.928Z,7.39
2019-02-08T07:44:45.675Z,7.30
2019-02-08T07:47:20.308Z,7.30
2019-02-08T07:50:17.328Z,7.45
2019-02-08T07:53:12.405Z,7.46
2019-02-08T07:55:53.926Z,7.61
2019-02-08T07:58:45.752Z,7.36
2019-02-08T08:01:23.905Z,7.49
2019-02-08T08:04:10.741Z,7.55
2019-02-08T08:07:02.327Z,7.58
2019-02-08T08:09:53.200Z,7.44
2019-02-08T08:12:29.726Z,7.55
2019-02-08T08:15:15.958Z,7.58
2019-02-08T08:17:53.614Z,7.65
2019-02-08T08:20:45.788Z,7.45
2019-02-08T08:23:36.940Z,7.46
2019-02-08T08:26:13.855Z,7.57
2019-02-08T08:29:01.385Z,7.48
2019-02-08T08:31:41.111Z,7.41
2019-02-08T08:34:14.882Z,7.38
2019-02-08T08:37:21.230Z,7.62
2019-02-08T08:40:14.412Z,7.59
2019-02-08T08:43:24.591Z,7.58
2019-02-08T08:46:18.231Z,7.63
2019-02-08T08:49:37.987Z,7.70
2019-02-08T08:52:50.698Z,7.63
2019-02-08T08:55:55.822Z,7.68
2019-02-08T08:59:18.732Z,7.75
2019-02-08T09:02:14.491Z,7.77
2019-02-08T09:05:06.153Z,7.65
2019-02-08T09:08:29.175Z,7.77
2019-02-08T09:11:39.070Z,7.89
2019-02-08T09:14:44.211Z,7.98
2019-02-08T09:17:54.714Z,8.01
2019-02-08T09:21:01.040Z,7.92
2019-02-08T09:23:56.665Z,7.89
2019-02-08T09:26:55.874Z,7.79
2019-02-08T09:30:14.832Z,7.87
2019-02-08T09:33:08.450Z,8.24
2019-02-08T09:36:01.474Z,8.60
2019-02-08T09:38:58.636Z,8.23
2019-02-08T09:42:08.876Z,8.25
2019-02-08T09:45:11.860Z,8.22
2019-02-08T09:48:11.458Z,8.10
2019-02-08T09:51:06.603Z,8.03
2019-02-08T09:54:02.202Z,8.09
2019-02-08T09:57:07.254Z,8.04
2019-02-08T10:00:06.040Z,8.05
2019-02-08T10:02:58.674Z,7.97
2019-02-08T10:06:24.622Z,8.03
2019-02-08T10:09:37.809Z,8.13
2019-02-08T10:12:43.287Z,8.26
2019-02-08T10:15:46.602Z,8.22
2019-02-08T10:18:43.741Z,8.11
2019-02-08T10:21:41.498Z,8.21
2019-02-08T10:24:55.128Z,8.31
2019-02-08T10:28:17.954Z,8.34
2019-02-08T10:31:25.704Z,8.71
2019-02-08T10:34:32.809Z,8.35
2019-02-08T10:37:46.478Z,8.40
2019-02-08T10:40:54.162Z,8.31
2019-02-08T10:44:10.934Z,8.36
2019-02-08T10:47:27.651Z,8.21
2019-02-08T10:50:46.375Z,8.35
2019-02-08T10:53:54.003Z,8.38
2019-02-08T10:57:20.056Z,8.51
2019-02-08T11:00:48.574Z,8.97
2019-02-08T11:04:03.378Z,8.77
2019-02-08T11:06:59.930Z,8.78
2019-02-08T11:09:52.794Z,8.67
2019-02-08T11:13:08.173Z,8.83
2019-02-08T11:16:14.784Z,8.65
2019-02-08T11:19:18.759Z,8.76
2019-02-08T11:21:51.448Z,8.84
2019-02-08T11:24:35.641Z,8.72
2019-02-08T11:27:10.811Z,8.69
2019-02-08T11:29:55.739Z,8.76
2019-02-08T11:32:43.010Z,8.77
2019-02-08T11:35:05.763Z,8.69
2019-02-08T11:37:46.376Z,8.86
2019-02-08T11:40:19.837Z,8.76
2019-02-08T11:43:00.889Z,8.83
2019-02-08T11:45:29.806Z,8.86
2019-02-08T11:48:07.119Z,8.74
2019-02-08T11:50:41.180Z,8.85
2019-02-08T11:53:14.780Z,8.84
2019-02-08T11:55:43.848Z,9.38
2019-02-08T11:58:18.122Z,9.22
2019-02-08T12:00:48.806Z,9.17
2019-02-08T12:03:28.156Z,9.10
2019-02-08T12:06:02.484Z,9.20
2019-02-08T12:08:33.907Z,9.18
2019-02-08T12:11:12.895Z,9.41
2019-02-08T12:13:47.768Z,9.23
2019-02-08T12:16:25.910Z,9.22
2019-02-08T12:19:04.244Z,9.45
2019-02-08T12:21:33.050Z,9.45
2019-02-08T12:24:09.195Z,9.47
2019-02-08T12:26:38.694Z,9.40
2019-02-08T12:29:07.753Z,9.33
2019-02-08T12:31:45.488Z,9.33
2019-02-08T12:34:17.324Z,9.51
2019-02-08T12:36:48.098Z,9.41
2019-02-08T12:39:29.096Z,9.43
2019-02-08T12:42:02.616Z,9.51
2019-02-08T12:44:34.259Z,9.40
2019-02-08T12:50:05.957Z,9.56
2019-02-08T12:52:36.573Z,9.63
2019-02-08T12:55:10.351Z,9.60
2019-02-08T12:57:52.155Z,9.59
2019-02-08T13:00:27.097Z,9.67
2019-02-08T13:02:59.174Z,9.74
2019-02-08T13:05:28.236Z,9.70
2019-02-08T13:07:57.642Z,9.65
2019-02-08T13:10:40.341Z,9.58
2019-02-08T13:13:11.386Z,9.60
2019-02-08T13:15:42.562Z,9.54
2019-02-08T13:18:11.603Z,9.79
2019-02-08T13:20:40.803Z,9.69
2019-02-08T13:23:17.203Z,9.72
2019-02-08T13:25:46.291Z,9.81
2019-02-08T13:28:19.901Z,9.83
2019-02-08T13:30:50.104Z,9.73
2019-02-08T13:33:18.979Z,9.52
2019-02-08T13:35:48.065Z,9.74
2019-02-08T13:38:21.677Z,9.58
2019-02-08T13:40:52.090Z,9.75
2019-02-08T13:43:21.389Z,9.91
2019-02-08T13:45:53.369Z,9.81
2019-02-08T13:48:23.275Z,9.84
2019-02-08T13:51:02.540Z,9.84
2019-02-08T13:53:50.106Z,9.98
2019-02-08T13:56:19.346Z,9.84
2019-02-08T13:58:48.471Z,9.93
2019-02-08T14:01:20.338Z,9.80
2019-02-08T14:03:48.681Z,9.91
2019-02-08T14:06:19.835Z,9.82
2019-02-08T14:08:53.326Z,9.92
2019-02-08T14:11:22.198Z,9.76
2019-02-08T14:13:51.504Z,9.92
2019-02-08T14:16:20.463Z,9.75
2019-02-08T14:18:49.491Z,9.83
2019-02-08T14:21:19.332Z,9.82
2019-02-08T14:23:48.404Z,9.66
2019-02-08T14:26:32.739Z,9.69
2019-02-08T14:29:02.598Z,9.59
2019-02-08T14:31:31.763Z,9.59
2019-02-08T14:34:18.553Z,9.70
2019-02-08T14:36:47.594Z,9.81
2019-02-08T14:39:19.102Z,9.75
2019-02-08T14:41:50.977Z,9.54
2019-02-08T14:44:20.161Z,10.12
2019-02-08T14:46:49.106Z,9.83
2019-02-08T14:49:18.783Z,10.06
2019-02-08T14:51:53.593Z,9.92
2019-02-08T14:54:25.158Z,9.86
2019-02-08T14:57:02.897Z,9.74
2019-02-08T14:59:32.429Z,10.21
2019-02-08T15:02:02.217Z,9.96
2019-02-08T15:04:39.238Z,9.88
2019-02-08T15:07:09.393Z,9.91
2019-02-08T15:09:40.214Z,9.80
2019-02-08T15:12:11.359Z,9.76
2019-02-08T15:14:48.155Z,9.83
2019-02-08T15:17:22.257Z,9.86
2019-02-08T15:19:57.926Z,9.93
2019-02-08T15:22:25.796Z,9.93
2019-02-08T15:24:55.052Z,9.98
2019-02-08T15:27:24.582Z,9.93
2019-02-08T15:29:58.104Z,9.74
2019-02-08T15:32:32.226Z,9.73
2019-02-08T15:35:03.502Z,9.78
2019-02-08T15:37:32.773Z,9.90
2019-02-08T15:40:06.372Z,9.86
2019-02-08T15:42:45.139Z,9.86
2019-02-08T15:45:38.646Z,9.84
2019-02-08T15:48:11.787Z,9.80
2019-02-08T15:50:41.153Z,9.91
2019-02-08T15:53:12.492Z,9.94
2019-02-08T15:56:16.601Z,9.91
2019-02-08T15:58:56.176Z,9.92
2019-02-08T16:01:26.892Z,9.93
2019-02-08T16:03:58.706Z,9.80
2019-02-08T16:06:27.820Z,9.87
2019-02-08T16:09:02.323Z,9.76
2019-02-08T16:11:31.416Z,9.80
2019-02-08T16:14:20.929Z,9.86
2019-02-08T16:16:49.937Z,9.99
2019-02-08T16:19:48.089Z,9.98
2019-02-08T16:22:19.883Z,10.29
2019-02-08T16:24:51.754Z,10.13
2019-02-08T16:27:20.850Z,10.09
2019-02-08T16:29:49.810Z,9.85
2019-02-08T16:32:24.276Z,9.90
2019-02-08T16:35:02.547Z,9.87
2019-02-08T16:37:33.890Z,9.92
2019-02-08T16:40:07.272Z,9.91
2019-02-08T16:42:36.451Z,9.89
2019-02-08T16:45:17.401Z,9.77
2019-02-08T16:47:40.089Z,9.82
2019-02-08T16:50:11.451Z,9.92
2019-02-08T16:52:40.783Z,9.96
2019-02-08T16:55:22.195Z,9.75
2019-02-08T16:57:52.124Z,10.08
2019-02-08T17:01:08.604Z,9.95
2019-02-08T17:03:37.651Z,9.96
2019-02-08T17:06:07.256Z,10.05
2019-02-08T17:08:36.178Z,9.89
2019-02-08T17:11:11.409Z,9.88
2019-02-08T17:13:52.913Z,9.98
2019-02-08T17:16:31.649Z,9.96
2019-02-08T17:19:00.732Z,9.92
2019-02-08T17:21:56.218Z,10.31
2019-02-08T17:24:26.530Z,10.02
2019-02-08T17:26:55.949Z,9.98
2019-02-08T17:29:42.999Z,9.92
2019-02-08T17:32:15.504Z,9.91
2019-02-08T17:34:46.223Z,10.16
2019-02-08T17:37:21.099Z,9.97
2019-02-08T17:39:51.294Z,10.07
2019-02-08T17:42:22.469Z,9.97
2019-02-08T17:45:00.192Z,10.00
2019-02-08T17:47:41.555Z,9.88
2019-02-08T17:50:24.154Z,10.02
2019-02-08T17:53:12.227Z,9.90
2019-02-08T17:55:59.203Z,10.32
2019-02-08T17:58:28.327Z,10.04
2019-02-08T18:01:00.653Z,9.90
2019-02-08T18:03:31.087Z,9.93
2019-02-08T18:05:59.221Z,9.90
2019-02-08T18:08:28.206Z,9.92
2019-02-08T18:10:59.514Z,10.00
2019-02-08T18:13:29.908Z,10.29
2019-02-08T18:16:09.300Z,10.16
2019-02-08T18:18:40.469Z,9.97
2019-02-08T18:21:11.168Z,10.06
2019-02-08T18:23:43.155Z,10.37
2019-02-08T18:26:14.754Z,10.05
2019-02-08T18:28:43.750Z,10.15
2019-02-08T18:31:21.608Z,10.18
2019-02-08T18:33:55.023Z,10.13
2019-02-08T18:36:26.626Z,9.96
2019-02-08T18:39:24.985Z,9.98
2019-02-08T18:41:39.598Z,10.12
2019-02-08T18:44:08.672Z,10.00
2019-02-08T18:46:37.800Z,10.00
2019-02-08T18:49:12.550Z,9.96
2019-02-08T18:51:41.657Z,10.12
2019-02-08T18:54:13.318Z,10.11
2019-02-08T18:56:42.341Z,10.12
2019-02-08T18:59:13.632Z,10.05
2019-02-08T19:01:47.127Z,10.18
2019-02-08T19:04:16.129Z,9.99
2019-02-08T19:06:47.755Z,10.24
2019-02-08T19:09:16.808Z,10.22
2019-02-08T19:11:48.947Z,10.05
2019-02-08T19:14:22.205Z,9.96
2019-02-08T19:16:58.210Z,9.95
2019-02-08T19:19:27.218Z,10.16
2019-02-08T19:21:56.195Z,10.14
2019-02-08T19:24:25.669Z,10.07
2019-02-08T19:26:54.923Z,10.14
2019-02-08T19:29:30.021Z,10.09
2019-02-08T19:32:04.963Z,10.00
2019-02-08T19:34:33.958Z,10.07
2019-02-08T19:37:08.536Z,10.03
2019-02-08T19:39:40.490Z,10.07
2019-02-08T19:42:09.513Z,10.13
2019-02-08T19:44:39.805Z,10.03
2019-02-08T19:47:11.848Z,9.94
2019-02-08T19:49:40.968Z,9.96
2019-02-08T19:52:09.957Z,9.82
2019-02-08T19:54:39.931Z,9.95
2019-02-08T19:57:09.479Z,9.90
2019-02-08T19:59:57.739Z,9.85
2019-02-08T20:02:42.536Z,9.70
2019-02-08T20:05:14.515Z,9.59
2019-02-08T20:07:58.328Z,9.44
2019-02-08T20:10:37.831Z,9.34
2019-02-08T20:16:22.053Z,9.31
2019-02-08T20:18:51.141Z,9.19
2019-02-08T20:21:35.033Z,9.20
2019-02-08T20:24:04.136Z,9.06
2019-02-08T20:26:35.794Z,9.12
2019-02-08T20:29:08.251Z,9.03
2019-02-08T20:31:58.491Z,9.07
2019-02-08T20:34:38.708Z,9.01
2019-02-08T20:37:08.018Z,9.11
2019-02-08T20:39:39.082Z,8.96
2019-02-08T20:42:19.157Z,9.00
2019-02-08T20:44:48.540Z,8.97
2019-02-08T20:47:23.782Z,8.96
2019-02-08T20:49:55.508Z,8.92
2019-02-08T20:56:02.608Z,8.85
2019-02-08T21:01:57.309Z,8.86
2019-02-08T21:04:48.892Z,8.95
2019-02-08T21:07:17.902Z,8.94
2019-02-08T21:09:57.871Z,8.86
2019-02-08T21:14:01.550Z,8.87
2019-02-08T21:16:17.874Z,8.85
2019-02-08T21:19:22.166Z,8.88
2019-02-08T21:21:57.239Z,8.95
2019-02-08T21:25:00.123Z,9.18
2019-02-08T21:30:43.213Z,9.09
2019-02-08T21:33:32.226Z,9.03
2019-02-08T21:36:05.986Z,8.96
2019-02-08T21:36:43.838Z,9.06
2019-02-08T21:38:35.646Z,9.02
2019-02-08T21:41:31.787Z,9.16
2019-02-08T21:44:12.232Z,9.01
2019-02-08T21:46:52.791Z,9.18
2019-02-08T21:49:28.840Z,8.95
2019-02-08T21:51:59.408Z,8.96
2019-02-08T21:54:33.227Z,8.80
2019-02-08T21:57:12.693Z,8.90
2019-02-08T21:59:41.747Z,8.76
2019-02-08T22:02:10.778Z,8.87
2019-02-08T22:04:47.173Z,8.88
2019-02-08T22:07:19.673Z,8.82
2019-02-08T22:09:58.789Z,8.87
2019-02-08T22:12:38.298Z,8.89
2019-02-08T22:15:11.819Z,8.85
2019-02-08T22:18:02.844Z,8.80
2019-02-08T22:20:33.876Z,8.74
2019-02-08T22:23:03.758Z,8.73
2019-02-08T22:25:36.516Z,8.79
2019-02-08T22:28:05.626Z,8.73
2019-02-08T22:30:54.909Z,8.79
2019-02-08T22:33:35.046Z,8.80
2019-02-08T22:36:10.176Z,8.89
2019-02-08T22:38:39.295Z,8.87
2019-02-08T22:41:10.419Z,8.80
2019-02-08T22:43:44.490Z,8.80
2019-02-08T22:46:13.486Z,8.71
2019-02-08T22:48:46.022Z,8.65
2019-02-08T22:51:22.359Z,8.64
2019-02-08T22:53:51.435Z,8.41
2019-02-08T22:56:26.324Z,8.65
2019-02-08T22:59:13.057Z,8.60
2019-02-08T23:01:58.605Z,8.69
2019-02-08T23:04:25.287Z,8.59
2019-02-08T23:06:55.144Z,8.60
2019-02-08T23:09:28.380Z,8.57
2019-02-08T23:11:57.660Z,8.63
2019-02-08T23:14:40.182Z,8.55
2019-02-08T23:17:15.630Z,8.61
2019-02-08T23:19:44.579Z,8.68
2019-02-08T23:22:13.366Z,8.67
2019-02-08T23:24:42.235Z,8.61
2019-02-08T23:27:11.154Z,8.61
2019-02-08T23:29:39.957Z,8.68
2019-02-08T23:32:08.819Z,8.66
2019-02-08T23:34:37.688Z,8.76
2019-02-08T23:37:06.577Z,8.78
2019-02-08T23:39:35.414Z,8.66
2019-02-08T23:42:04.370Z,8.65
2019-02-08T23:44:33.192Z,8.58
2019-02-08T23:47:02.059Z,8.76
2019-02-08T23:49:30.920Z,8.71
2019-02-08T23:51:59.773Z,8.70
2019-02-08T23:54:28.622Z,8.77
2019-02-08T23:56:57.447Z,8.79
2019-02-08T23:59:26.307Z,8.70
